createdAt,value
2022-09-26T00:00:02.335Z,97.5
2022-09-26T00:01:18.627Z,97.1
2022-09-26T00:02:34.937Z,97.2
2022-09-26T00:03:51.226Z,97.3
2022-09-26T00:05:07.507Z,97.5
2022-09-26T00:06:23.821Z,97.3
2022-09-26T00:07:39.125Z,97.5
2022-09-26T00:08:55.412Z,97.5
2022-09-26T00:10:11.705Z,97.5
2022-09-26T00:12:44.287Z,97.8
2022-09-26T00:14:00.587Z,97.9
2022-09-26T00:15:16.876Z,98.1
2022-09-26T00:16:33.180Z,98.1
2022-09-26T00:17:48.502Z,97.9
2022-09-26T00:19:04.794Z,98.1
2022-09-26T00:20:21.082Z,98.3
2022-09-26T00:21:37.364Z,98.2
2022-09-26T00:22:53.660Z,98.3
2022-09-26T00:24:09.967Z,98.1
2022-09-26T00:25:26.245Z,98.2
2022-09-26T00:26:42.560Z,98.2
2022-09-26T00:27:58.844Z,97.8
2022-09-26T00:29:15.131Z,98.1
2022-09-26T00:30:31.429Z,98.1
2022-09-26T00:31:47.718Z,98.1
2022-09-26T00:33:04.020Z,97.9
2022-09-26T00:35:35.621Z,98.3
2022-09-26T00:36:51.912Z,98.3
2022-09-26T00:38:08.204Z,98.2
2022-09-26T00:39:24.500Z,98.2
2022-09-26T00:40:40.788Z,98.2
2022-09-26T00:41:57.081Z,98.2
2022-09-26T00:43:13.389Z,98.2
2022-09-26T00:44:29.683Z,98.3
2022-09-26T00:45:45.973Z,98.3
2022-09-26T00:47:02.262Z,98.3
2022-09-26T00:48:18.568Z,98.5
2022-09-26T00:49:34.858Z,98.3
2022-09-26T00:50:50.172Z,98.4
2022-09-26T00:53:22.749Z,98.2
2022-09-26T00:54:39.038Z,98.3
2022-09-26T00:55:55.341Z,98.4
2022-09-26T00:58:27.932Z,98.5
2022-09-26T00:59:43.241Z,98.5
2022-09-26T01:00:58.558Z,98.5
2022-09-26T01:02:14.834Z,98.6
2022-09-26T01:03:31.144Z,98.6
2022-09-26T01:04:47.438Z,98.6
2022-09-26T01:06:03.728Z,98.4
2022-09-26T01:07:20.012Z,98.3
2022-09-26T01:08:36.321Z,98.6
2022-09-26T01:09:52.608Z,98.4
2022-09-26T01:11:08.891Z,98.3
2022-09-26T01:13:41.494Z,98.2
2022-09-26T01:14:57.791Z,97.9
2022-09-26T01:16:14.084Z,98.1
2022-09-26T01:17:30.370Z,97.7
2022-09-26T01:18:45.683Z,97.6
2022-09-26T01:20:01.971Z,97.3
2022-09-26T01:21:18.274Z,96.7
2022-09-26T01:22:34.561Z,94.2
2022-09-26T01:23:50.860Z,93.4
2022-09-26T01:25:07.140Z,93.9
2022-09-26T01:26:23.438Z,94
2022-09-26T01:28:55.054Z,94.4
2022-09-26T01:30:10.361Z,94.3
2022-09-26T01:31:26.663Z,94.6
2022-09-26T01:32:42.950Z,94.8
2022-09-26T01:33:59.231Z,95
2022-09-26T01:35:15.530Z,95
2022-09-26T01:36:31.819Z,95
2022-09-26T01:37:48.128Z,95.3
2022-09-26T01:39:04.413Z,95.5
2022-09-26T01:40:19.725Z,95.4
2022-09-26T01:41:35.037Z,91.5
2022-09-26T01:42:51.331Z,86.5
2022-09-26T01:44:07.627Z,86.2
2022-09-26T01:45:23.924Z,84.8
2022-09-26T01:46:40.214Z,85
2022-09-26T01:47:56.519Z,84.9
2022-09-26T01:49:12.794Z,86.1
2022-09-26T01:50:29.101Z,86.2
2022-09-26T01:51:45.400Z,86.8
2022-09-26T01:53:01.683Z,86.9
2022-09-26T01:54:17.988Z,87.5
2022-09-26T01:55:34.263Z,87.7
2022-09-26T01:56:50.561Z,87.8
2022-09-26T01:58:05.868Z,88
2022-09-26T01:59:22.181Z,88.2
2022-09-26T02:00:38.461Z,88.2
2022-09-26T02:01:54.751Z,87.8
2022-09-26T02:03:11.050Z,88.5
2022-09-26T02:04:27.352Z,88.6
2022-09-26T02:05:43.640Z,89.5
2022-09-26T02:06:59.934Z,90
2022-09-26T02:08:16.234Z,89.2
2022-09-26T02:09:32.528Z,89
2022-09-26T02:10:48.823Z,89.1
2022-09-26T02:12:05.099Z,89.4
2022-09-26T02:13:21.401Z,89.6
2022-09-26T02:14:36.711Z,89.8
2022-09-26T02:15:53.010Z,90
2022-09-26T02:17:09.292Z,90.2
2022-09-26T02:18:25.603Z,91
2022-09-26T02:19:41.880Z,91.6
2022-09-26T02:22:14.482Z,92.5
2022-09-26T02:23:30.778Z,93
2022-09-26T02:24:47.064Z,93.2
2022-09-26T02:26:03.364Z,93.1
2022-09-26T02:27:19.642Z,93.3
2022-09-26T02:28:35.951Z,93.6
2022-09-26T02:29:52.246Z,93.5
2022-09-26T02:31:07.543Z,93.6
2022-09-26T02:32:23.841Z,93.2
2022-09-26T02:33:40.137Z,93.2
2022-09-26T02:34:56.422Z,92.9
2022-09-26T02:36:12.720Z,92.9
2022-09-26T02:37:29.020Z,93
2022-09-26T02:38:45.320Z,93.1
2022-09-26T02:40:01.608Z,93.3
2022-09-26T02:41:17.899Z,93.5
2022-09-26T02:42:34.189Z,93.5
2022-09-26T02:43:50.485Z,93.4
2022-09-26T02:45:06.780Z,93.8
2022-09-26T02:46:23.071Z,94
2022-09-26T02:47:38.393Z,94.1
2022-09-26T02:48:54.667Z,94.4
2022-09-26T02:50:10.971Z,94.8
2022-09-26T02:51:27.263Z,94.9
2022-09-26T02:52:43.555Z,94.8
2022-09-26T02:53:59.848Z,94.8
2022-09-26T02:55:16.136Z,94.9
2022-09-26T02:56:32.430Z,94.9
2022-09-26T02:57:48.722Z,94.5
2022-09-26T02:59:05.026Z,94.5
2022-09-26T03:00:21.330Z,94.4
2022-09-26T03:01:37.622Z,93.9
2022-09-26T03:02:53.916Z,94
2022-09-26T03:04:09.228Z,93.6
2022-09-26T03:05:25.520Z,93.5
2022-09-26T03:06:41.800Z,93
2022-09-26T03:07:58.097Z,92.7
2022-09-26T03:09:14.387Z,92.8
2022-09-26T03:10:30.687Z,93.1
2022-09-26T03:11:46.979Z,93.3
2022-09-26T03:13:03.272Z,93.6
2022-09-26T03:15:35.864Z,93.6
2022-09-26T03:16:52.165Z,93.7
2022-09-26T03:18:08.451Z,93.9
2022-09-26T03:19:24.736Z,94
2022-09-26T03:20:40.060Z,94.1
2022-09-26T03:21:56.345Z,94.1
2022-09-26T03:23:12.643Z,94
2022-09-26T03:24:28.929Z,94.3
2022-09-26T03:25:45.223Z,94.7
2022-09-26T03:27:01.520Z,94.6
2022-09-26T03:28:17.820Z,94.8
2022-09-26T03:29:34.110Z,95.2
2022-09-26T03:30:50.411Z,94.9
2022-09-26T03:32:06.692Z,95.5
2022-09-26T03:33:22.994Z,96.1
2022-09-26T03:34:39.288Z,96.4
2022-09-26T03:35:55.585Z,96.4
2022-09-26T03:38:27.193Z,96.6
2022-09-26T03:39:43.482Z,97
2022-09-26T03:40:59.780Z,96.9
2022-09-26T03:42:16.068Z,97
2022-09-26T03:43:32.368Z,97
2022-09-26T03:44:48.648Z,97.5
2022-09-26T03:46:04.947Z,97.9
2022-09-26T03:47:21.249Z,97.9
2022-09-26T03:48:37.535Z,97.8
2022-09-26T03:49:53.824Z,98.2
2022-09-26T03:51:10.121Z,98
2022-09-26T03:52:26.415Z,98.3
2022-09-26T03:53:41.727Z,98.3
2022-09-26T03:56:14.313Z,98.3
2022-09-26T03:57:30.608Z,98.3
2022-09-26T03:58:46.895Z,98.3
2022-09-26T04:01:19.487Z,97.8
2022-09-26T04:02:34.799Z,98.2
2022-09-26T04:03:50.121Z,98.2
2022-09-26T04:05:06.398Z,97.9
2022-09-26T04:06:22.705Z,97.9
2022-09-26T04:07:38.999Z,97.7
2022-09-26T04:08:55.298Z,98.2
2022-09-26T04:10:11.573Z,98.5
2022-09-26T04:11:27.874Z,98
2022-09-26T04:12:44.172Z,98.3
2022-09-26T04:14:00.461Z,98.5
2022-09-26T04:16:33.052Z,98.8
2022-09-26T04:17:49.343Z,98.5
2022-09-26T04:19:05.631Z,98.8
2022-09-26T04:20:20.956Z,98.9
2022-09-26T04:21:37.254Z,98.8
2022-09-26T04:22:53.549Z,98.3
2022-09-26T04:24:09.000Z,98.5
2022-09-26T04:25:26.136Z,98.5
2022-09-26T04:26:42.415Z,99.1
2022-09-26T04:27:58.715Z,98.8
2022-09-26T04:29:15.008Z,99
2022-09-26T04:31:46.564Z,99.1
2022-09-26T04:33:01.848Z,99
2022-09-26T04:34:18.070Z,99.2
2022-09-26T04:35:34.365Z,99.1
2022-09-26T04:36:50.613Z,99
2022-09-26T04:38:06.907Z,99.2
2022-09-26T04:40:39.412Z,99.1
2022-09-26T04:41:54.677Z,99
2022-09-26T04:43:09.916Z,99.1
2022-09-26T04:44:26.153Z,99.1
2022-09-26T04:45:42.384Z,99.3
2022-09-26T04:46:58.620Z,99.2
2022-09-26T04:48:14.863Z,99
2022-09-26T04:49:31.109Z,99
2022-09-26T04:50:47.354Z,98.9
2022-09-26T04:52:03.577Z,99.3
2022-09-26T04:53:19.826Z,99.3
2022-09-26T04:54:36.056Z,99.3
2022-09-26T04:57:07.574Z,99.3
2022-09-26T04:58:22.823Z,99.3
2022-09-26T04:59:39.069Z,99.2
2022-09-26T05:00:55.306Z,99.2
2022-09-26T05:02:11.537Z,99.2
2022-09-26T05:03:27.773Z,99.3
2022-09-26T05:04:44.020Z,99.3
2022-09-26T05:06:00.273Z,99.3
2022-09-26T05:07:16.511Z,99.3
2022-09-26T05:08:32.742Z,99.3
2022-09-26T05:09:48.003Z,99.4
2022-09-26T05:11:03.269Z,99.5
2022-09-26T05:12:19.498Z,99.6
2022-09-26T05:13:35.736Z,99.5
2022-09-26T05:14:51.987Z,99.7
2022-09-26T05:17:24.460Z,99.9
2022-09-26T05:18:40.697Z,99.6
2022-09-26T05:19:56.937Z,99.8
2022-09-26T05:21:13.182Z,99.7
2022-09-26T05:22:29.426Z,99.7
2022-09-26T05:23:45.665Z,99.9
2022-09-26T05:25:01.906Z,99.7
2022-09-26T05:26:18.141Z,99.9
2022-09-26T05:27:33.406Z,100
2022-09-26T05:28:49.652Z,100
2022-09-26T05:30:05.874Z,100
2022-09-26T05:32:38.357Z,100
2022-09-26T05:33:53.627Z,100
2022-09-26T05:35:08.873Z,100
2022-09-26T05:36:25.109Z,100
2022-09-26T05:37:41.356Z,100
2022-09-26T05:38:57.607Z,100
2022-09-26T05:40:13.837Z,100
2022-09-26T05:41:30.073Z,100
2022-09-26T05:42:46.318Z,100
2022-09-26T05:44:02.566Z,100
2022-09-26T05:45:18.804Z,100
2022-09-26T05:46:35.033Z,100
2022-09-26T05:47:50.307Z,100
2022-09-26T05:49:05.568Z,100
2022-09-26T05:50:21.800Z,100
2022-09-26T05:51:38.033Z,100
2022-09-26T05:52:54.271Z,100
2022-09-26T05:55:26.766Z,100
2022-09-26T05:56:43.003Z,100
2022-09-26T05:57:59.241Z,100
2022-09-26T05:59:15.000Z,100
2022-09-26T06:00:31.724Z,100
2022-09-26T06:03:04.191Z,100
2022-09-26T06:04:20.429Z,100
2022-09-26T06:05:35.708Z,100
2022-09-26T06:06:50.964Z,100
2022-09-26T06:08:07.185Z,100
2022-09-26T06:10:39.665Z,100
2022-09-26T06:11:55.914Z,100
2022-09-26T06:13:12.159Z,100
2022-09-26T06:14:28.398Z,100
2022-09-26T06:15:44.638Z,100
2022-09-26T06:17:00.883Z,100
2022-09-26T06:18:17.122Z,100
2022-09-26T06:19:33.352Z,100
2022-09-26T06:20:49.599Z,100
2022-09-26T06:22:05.832Z,100
2022-09-26T06:23:22.074Z,100
2022-09-26T06:24:37.333Z,100
2022-09-26T06:25:53.570Z,99.5
2022-09-26T06:27:09.811Z,99.3
2022-09-26T06:28:26.048Z,99.4
2022-09-26T06:29:42.294Z,99
2022-09-26T06:30:58.536Z,98.9
2022-09-26T06:32:14.773Z,98.8
2022-09-26T06:33:30.043Z,98.3
2022-09-26T06:34:45.290Z,97.9
2022-09-26T06:36:01.534Z,97.9
2022-09-26T06:37:17.774Z,97.8
2022-09-26T06:38:34.012Z,97.8
2022-09-26T06:39:50.252Z,97.5
2022-09-26T06:41:06.497Z,97.7
2022-09-26T06:42:22.721Z,97.5
2022-09-26T06:43:38.960Z,97.6
2022-09-26T06:44:55.210Z,97.4
2022-09-26T06:46:11.451Z,97.7
2022-09-26T06:47:26.717Z,97.6
2022-09-26T06:48:41.972Z,97.8
2022-09-26T06:49:58.205Z,97.3
2022-09-26T06:51:14.449Z,97.8
2022-09-26T06:52:30.674Z,97.8
2022-09-26T06:53:46.922Z,97.7
2022-09-26T06:56:19.407Z,96.8
2022-09-26T06:57:35.633Z,96.5
2022-09-26T06:58:51.891Z,96.9
2022-09-26T07:00:08.112Z,97
2022-09-26T07:01:24.372Z,97
2022-09-26T07:03:56.843Z,97.1
2022-09-26T07:05:13.082Z,96.9
2022-09-26T07:06:28.343Z,96.7
2022-09-26T07:07:44.594Z,96.6
2022-09-26T07:09:00.820Z,96.1
2022-09-26T07:10:16.072Z,96.1
2022-09-26T07:11:32.313Z,95.5
2022-09-26T07:12:48.562Z,95.3
2022-09-26T07:15:21.033Z,96.1
2022-09-26T07:16:37.275Z,95.9
2022-09-26T07:17:53.513Z,95
2022-09-26T07:19:09.747Z,94.6
2022-09-26T07:20:25.995Z,95
2022-09-26T07:21:42.229Z,93.6
2022-09-26T07:22:58.482Z,93.5
2022-09-26T07:24:14.720Z,94.1
2022-09-26T07:26:47.198Z,94.3
2022-09-26T07:28:03.435Z,93.4
2022-09-26T07:29:18.690Z,93.5
2022-09-26T07:30:34.930Z,93.6
2022-09-26T07:31:50.197Z,93
2022-09-26T07:33:06.440Z,93.2
2022-09-26T07:34:22.672Z,92.8
2022-09-26T07:35:38.917Z,92.8
2022-09-26T07:36:55.153Z,92.8
2022-09-26T07:38:11.384Z,92.7
2022-09-26T07:39:27.639Z,92.2
2022-09-26T07:40:43.863Z,92.1
2022-09-26T07:42:00.104Z,92.3
2022-09-26T07:43:16.355Z,91.2
2022-09-26T07:44:31.609Z,90.7
2022-09-26T07:45:47.851Z,88.9
2022-09-26T07:47:03.101Z,90
2022-09-26T07:48:19.346Z,89.9
2022-09-26T07:49:35.585Z,89.4
2022-09-26T07:50:51.829Z,85.8
2022-09-26T07:52:08.061Z,88
2022-09-26T07:53:24.299Z,89.6
2022-09-26T07:54:40.542Z,89.3
2022-09-26T07:55:56.783Z,88.8
2022-09-26T07:57:13.022Z,89
2022-09-26T07:58:29.278Z,89.3
2022-09-26T07:59:44.525Z,88.5
2022-09-26T08:00:59.789Z,87.3
2022-09-26T08:02:16.017Z,87.5
2022-09-26T08:03:32.254Z,86
2022-09-26T08:04:48.492Z,87.1
2022-09-26T08:06:04.738Z,87.1
2022-09-26T08:07:20.992Z,85.6
2022-09-26T08:08:37.227Z,83.8
2022-09-26T08:09:53.458Z,85
2022-09-26T08:12:25.938Z,85.4
2022-09-26T08:13:42.176Z,86.5
2022-09-26T08:14:58.414Z,87.2
2022-09-26T08:16:14.660Z,85.4
2022-09-26T08:17:29.917Z,83.6
2022-09-26T08:18:46.162Z,83.6
2022-09-26T08:20:02.402Z,81.5
2022-09-26T08:21:18.641Z,80.8
2022-09-26T08:22:34.869Z,81.6
2022-09-26T08:23:51.123Z,81.7
2022-09-26T08:25:07.364Z,82.3
2022-09-26T08:27:39.845Z,82
2022-09-26T08:28:56.000Z,81.5
2022-09-26T08:31:28.560Z,79.4
2022-09-26T08:32:43.819Z,80.2
2022-09-26T08:34:00.061Z,78.7
2022-09-26T08:35:15.305Z,80.2
2022-09-26T08:37:47.785Z,80.3
2022-09-26T08:39:04.033Z,80.3
2022-09-26T08:40:20.265Z,79.1
2022-09-26T08:41:36.501Z,78.6
2022-09-26T08:42:52.739Z,78.7
2022-09-26T08:44:08.997Z,80
2022-09-26T08:45:25.231Z,78.2
2022-09-26T08:46:41.475Z,77.9
2022-09-26T08:49:12.970Z,76.8
2022-09-26T08:50:28.231Z,77
2022-09-26T08:51:43.505Z,76.2
2022-09-26T08:52:59.732Z,75.6
2022-09-26T08:54:15.980Z,76.9
2022-09-26T08:55:32.217Z,76
2022-09-26T08:56:48.445Z,76.7
2022-09-26T08:58:04.690Z,76.8
2022-09-26T08:59:20.937Z,76.7
2022-09-26T09:00:37.180Z,75.7
2022-09-26T09:01:53.410Z,75.9
2022-09-26T09:03:09.647Z,75.4
2022-09-26T09:04:24.924Z,76
2022-09-26T09:05:40.179Z,75.8
2022-09-26T09:06:56.409Z,75.5
2022-09-26T09:08:12.648Z,76
2022-09-26T09:09:28.899Z,74.1
2022-09-26T09:10:45.128Z,73.1
2022-09-26T09:12:01.370Z,74.8
2022-09-26T09:13:17.600Z,71.9
2022-09-26T09:14:33.856Z,74.1
2022-09-26T09:15:50.093Z,74
2022-09-26T09:17:06.327Z,71.8
2022-09-26T09:18:21.581Z,71.3
2022-09-26T09:19:36.841Z,71.2
2022-09-26T09:20:53.079Z,70.3
2022-09-26T09:22:09.319Z,69.2
2022-09-26T09:23:25.565Z,71.4
2022-09-26T09:24:41.801Z,70.3
2022-09-26T09:25:58.035Z,70.2
2022-09-26T09:27:14.292Z,68.1
2022-09-26T09:28:30.525Z,67.9
2022-09-26T09:29:46.771Z,69.5
2022-09-26T09:31:03.004Z,70.6
2022-09-26T09:32:19.238Z,70.5
2022-09-26T09:33:35.475Z,70.8
2022-09-26T09:36:07.964Z,70.6
2022-09-26T09:37:24.210Z,70.7
2022-09-26T09:38:39.456Z,70.7
2022-09-26T09:39:55.705Z,69.7
2022-09-26T09:41:11.937Z,70.4
2022-09-26T09:42:28.170Z,70.7
2022-09-26T09:43:44.421Z,71.5
2022-09-26T09:45:00.665Z,69.6
2022-09-26T09:46:16.901Z,68.9
2022-09-26T09:47:33.130Z,68.3
2022-09-26T09:48:49.376Z,65.8
2022-09-26T09:51:21.866Z,65.8
2022-09-26T09:52:38.095Z,64.7
2022-09-26T09:53:54.333Z,66
2022-09-26T09:55:09.585Z,66.1
2022-09-26T09:56:25.836Z,65.9
2022-09-26T09:57:42.064Z,64.3
2022-09-26T10:00:14.556Z,65.4
2022-09-26T10:01:29.812Z,65.7
2022-09-26T10:02:45.076Z,67.1
2022-09-26T10:04:01.305Z,66.2
2022-09-26T10:05:17.546Z,65.6
2022-09-26T10:06:33.790Z,65.8
2022-09-26T10:07:50.027Z,64.3
2022-09-26T10:09:06.267Z,66.3
2022-09-26T10:10:22.511Z,66.9
2022-09-26T10:11:38.757Z,65.1
2022-09-26T10:12:54.979Z,66.4
2022-09-26T10:14:11.231Z,65.8
2022-09-26T10:15:27.457Z,66.3
2022-09-26T10:17:58.968Z,66.3
2022-09-26T10:19:14.227Z,66.8
2022-09-26T10:20:30.464Z,65.7
2022-09-26T10:21:46.705Z,66.9
2022-09-26T10:23:02.936Z,64.9
2022-09-26T10:24:19.175Z,64
2022-09-26T10:25:35.423Z,63.9
2022-09-26T10:26:51.668Z,64.4
2022-09-26T10:28:07.911Z,64.5
2022-09-26T10:29:23.171Z,66.1
2022-09-26T10:30:39.409Z,64.6
2022-09-26T10:31:54.655Z,66.2
2022-09-26T10:33:10.893Z,64.6
2022-09-26T10:34:27.130Z,64.5
2022-09-26T10:35:43.372Z,63.7
2022-09-26T10:38:15.852Z,60.3
2022-09-26T10:39:32.104Z,61
2022-09-26T10:40:48.331Z,61.7
2022-09-26T10:42:04.586Z,60.8
2022-09-26T10:43:20.829Z,61.3
2022-09-26T10:44:37.069Z,61.8
2022-09-26T10:45:53.305Z,60.3
2022-09-26T10:47:09.539Z,61.8
2022-09-26T10:48:24.800Z,61.6
2022-09-26T10:49:41.031Z,60.8
2022-09-26T10:50:57.273Z,61.9
2022-09-26T10:52:13.524Z,61.1
2022-09-26T10:53:29.745Z,60.5
2022-09-26T10:54:45.988Z,60.8
2022-09-26T10:56:02.226Z,60.1
2022-09-26T10:57:18.473Z,60.2
2022-09-26T10:58:34.705Z,59.7
2022-09-26T10:59:50.963Z,59.8
2022-09-26T11:01:07.195Z,60.9
2022-09-26T11:02:23.427Z,59.6
2022-09-26T11:03:39.676Z,59.5
2022-09-26T11:04:54.925Z,58.7
2022-09-26T11:06:11.173Z,59.4
2022-09-26T11:07:27.413Z,60.3
2022-09-26T11:08:43.649Z,60.5
2022-09-26T11:09:59.900Z,59.5
2022-09-26T11:11:16.139Z,58.2
2022-09-26T11:12:32.376Z,59.4
2022-09-26T11:13:48.618Z,58.4
2022-09-26T11:15:04.842Z,58.4
2022-09-26T11:16:21.085Z,58.6
2022-09-26T11:17:37.322Z,58.7
2022-09-26T11:18:53.558Z,58.3
2022-09-26T11:20:09.797Z,57.9
2022-09-26T11:21:25.066Z,57.4
2022-09-26T11:22:41.298Z,59.4
2022-09-26T11:23:57.541Z,59.4
2022-09-26T11:25:13.780Z,57.6
2022-09-26T11:26:30.029Z,58.5
2022-09-26T11:27:46.262Z,56.9
2022-09-26T11:29:02.509Z,58.2
2022-09-26T11:30:18.739Z,57.7
2022-09-26T11:31:34.973Z,58.4
2022-09-26T11:32:51.231Z,58.5
2022-09-26T11:34:07.451Z,58.9
2022-09-26T11:35:23.705Z,58.1
2022-09-26T11:36:39.948Z,59
2022-09-26T11:37:55.205Z,59.3
2022-09-26T11:39:11.441Z,58.9
2022-09-26T11:40:27.675Z,58.7
2022-09-26T11:41:43.908Z,59.3
2022-09-26T11:43:00.163Z,58.3
2022-09-26T11:45:32.641Z,60.5
2022-09-26T11:46:48.879Z,60.7
2022-09-26T11:48:05.120Z,58.3
2022-09-26T11:49:21.358Z,57.4
2022-09-26T11:50:37.596Z,57.2
2022-09-26T11:51:53.834Z,57
2022-09-26T11:53:10.077Z,56.6
2022-09-26T11:54:26.309Z,56.6
2022-09-26T11:55:41.577Z,57.5
2022-09-26T11:56:57.817Z,58
2022-09-26T11:58:14.056Z,57.2
2022-09-26T11:59:30.281Z,56.7
2022-09-26T12:00:46.539Z,56.7
2022-09-26T12:02:02.765Z,57.2
2022-09-26T12:03:19.001Z,57.9
2022-09-26T12:04:35.258Z,58
2022-09-26T12:05:51.486Z,58.4
2022-09-26T12:07:07.736Z,58.9
2022-09-26T12:08:23.960Z,59.6
2022-09-26T12:09:40.216Z,60.3
2022-09-26T12:10:56.449Z,58.3
2022-09-26T12:12:11.700Z,59.4
2022-09-26T12:13:27.956Z,59.4
2022-09-26T12:14:44.176Z,58.8
2022-09-26T12:17:16.662Z,54.4
2022-09-26T12:18:32.907Z,55
2022-09-26T12:19:49.144Z,55.5
2022-09-26T12:21:05.383Z,54.8
2022-09-26T12:22:21.622Z,55.4
2022-09-26T12:23:37.868Z,55.2
2022-09-26T12:24:54.095Z,55.2
2022-09-26T12:26:10.350Z,54.9
2022-09-26T12:27:26.576Z,56
2022-09-26T12:28:41.833Z,55.3
2022-09-26T12:29:58.080Z,56.3
2022-09-26T12:31:14.323Z,56.7
2022-09-26T12:32:30.563Z,56.6
2022-09-26T12:33:46.804Z,56.4
2022-09-26T12:35:03.047Z,57.3
2022-09-26T12:36:19.269Z,57.6
2022-09-26T12:37:35.528Z,57.1
2022-09-26T12:38:51.769Z,56.4
2022-09-26T12:40:08.001Z,58
2022-09-26T12:41:24.241Z,56.5
2022-09-26T12:42:40.488Z,56.6
2022-09-26T12:43:56.730Z,57
2022-09-26T12:45:11.965Z,56
2022-09-26T12:46:28.204Z,56.8
2022-09-26T12:47:44.460Z,55
2022-09-26T12:49:00.703Z,54.4
2022-09-26T12:50:16.923Z,55
2022-09-26T12:51:33.169Z,55.2
2022-09-26T12:52:49.410Z,54.9
2022-09-26T12:54:05.645Z,56.1
2022-09-26T12:55:21.905Z,56
2022-09-26T12:56:38.132Z,56.6
2022-09-26T12:57:54.383Z,57
2022-09-26T12:59:10.615Z,56.5
2022-09-26T13:00:26.842Z,55.8
2022-09-26T13:01:42.101Z,56.1
2022-09-26T13:02:58.350Z,55
2022-09-26T13:04:14.589Z,54.6
2022-09-26T13:05:29.851Z,55.5
2022-09-26T13:06:46.087Z,54.8
2022-09-26T13:08:02.327Z,54.1
2022-09-26T13:09:18.568Z,55.1
2022-09-26T13:10:34.810Z,55.4
2022-09-26T13:11:51.055Z,54
2022-09-26T13:13:07.279Z,53.9
2022-09-26T13:14:23.529Z,53.6
2022-09-26T13:15:39.768Z,53.7
2022-09-26T13:16:56.007Z,54.3
2022-09-26T13:18:12.251Z,54.5
2022-09-26T13:19:28.491Z,53.1
2022-09-26T13:20:44.736Z,55.3
2022-09-26T13:21:59.975Z,52.9
2022-09-26T13:23:16.231Z,53.5
2022-09-26T13:24:32.470Z,51.3
2022-09-26T13:25:48.710Z,51.1
2022-09-26T13:27:04.944Z,51.4
2022-09-26T13:28:21.179Z,50.7
2022-09-26T13:29:37.418Z,52
2022-09-26T13:32:09.910Z,52.1
2022-09-26T13:33:26.148Z,52.5
2022-09-26T13:34:42.382Z,53.1
2022-09-26T13:35:58.632Z,52.5
2022-09-26T13:37:14.870Z,54
2022-09-26T13:38:31.096Z,52.6
2022-09-26T13:39:46.351Z,51.3
2022-09-26T13:41:02.595Z,50.9
2022-09-26T13:42:18.828Z,51.5
2022-09-26T13:43:35.074Z,51.5
2022-09-26T13:44:51.311Z,50.6
2022-09-26T13:46:07.562Z,52.5
2022-09-26T13:47:23.802Z,51.6
2022-09-26T13:48:40.036Z,51.2
2022-09-26T13:49:56.274Z,51.1
2022-09-26T13:51:12.511Z,51.6
2022-09-26T13:52:28.760Z,51.7
2022-09-26T13:53:44.990Z,51.7
2022-09-26T13:55:01.239Z,52.5
2022-09-26T13:56:16.503Z,52.8
2022-09-26T13:57:32.741Z,52.3
2022-09-26T13:58:48.980Z,51.6
2022-09-26T14:00:05.206Z,51.7
2022-09-26T14:02:37.697Z,52.9
2022-09-26T14:03:53.936Z,52.6
2022-09-26T14:05:10.178Z,51.6
2022-09-26T14:06:26.421Z,52.4
2022-09-26T14:07:42.661Z,51.9
2022-09-26T14:08:58.897Z,51.8
2022-09-26T14:10:15.122Z,51.5
2022-09-26T14:11:31.361Z,52.1
2022-09-26T14:12:46.629Z,52.2
2022-09-26T14:14:02.867Z,52.9
2022-09-26T14:15:19.112Z,52
2022-09-26T14:17:51.578Z,53
2022-09-26T14:19:07.831Z,53
2022-09-26T14:20:24.069Z,53.8
2022-09-26T14:21:40.303Z,54.2
2022-09-26T14:22:56.539Z,54.3
2022-09-26T14:24:12.790Z,54.4
2022-09-26T14:25:29.014Z,54.5
2022-09-26T14:26:45.264Z,54.1
2022-09-26T14:28:01.504Z,54.5
2022-09-26T14:29:16.757Z,53.9
2022-09-26T14:30:32.994Z,54.3
2022-09-26T14:31:49.234Z,54.5
2022-09-26T14:33:05.471Z,54.6
2022-09-26T14:34:21.713Z,54.1
2022-09-26T14:35:37.954Z,54.2
2022-09-26T14:36:54.194Z,54.9
2022-09-26T14:38:10.449Z,54.6
2022-09-26T14:39:26.684Z,54.3
2022-09-26T14:40:42.910Z,54.3
2022-09-26T14:41:59.153Z,54.7
2022-09-26T14:43:15.399Z,55.2
2022-09-26T14:44:31.647Z,55.4
2022-09-26T14:45:46.894Z,55.2
2022-09-26T14:47:03.141Z,55.4
2022-09-26T14:48:19.386Z,55.7
2022-09-26T14:49:35.611Z,55.9
2022-09-26T14:50:51.845Z,56.6
2022-09-26T14:52:08.099Z,56.4
2022-09-26T14:53:24.340Z,57
2022-09-26T14:54:40.582Z,57.2
2022-09-26T14:55:56.819Z,57.8
2022-09-26T14:58:29.287Z,59.4
2022-09-26T14:59:45.527Z,60.1
2022-09-26T15:01:01.783Z,61.3
2022-09-26T15:02:17.024Z,61.7
2022-09-26T15:03:33.266Z,62.1
2022-09-26T15:04:49.510Z,62.6
2022-09-26T15:06:05.752Z,63.1
2022-09-26T15:07:21.982Z,63.1
2022-09-26T15:08:38.220Z,64.1
2022-09-26T15:09:54.477Z,64.1
2022-09-26T15:11:10.705Z,63.5
2022-09-26T15:12:26.945Z,63.9
2022-09-26T15:13:43.197Z,64.5
2022-09-26T15:14:59.433Z,64.5
2022-09-26T15:16:15.675Z,64.1
2022-09-26T15:17:31.897Z,64.2
2022-09-26T15:18:47.158Z,64.3
2022-09-26T15:20:03.400Z,64.8
2022-09-26T15:21:19.639Z,65.3
2022-09-26T15:22:35.891Z,64.8
2022-09-26T15:23:52.118Z,64.5
2022-09-26T15:25:08.362Z,63.8
2022-09-26T15:26:24.603Z,62.9
2022-09-26T15:27:40.853Z,63.2
2022-09-26T15:28:57.091Z,61.9
2022-09-26T15:30:13.325Z,62.6
2022-09-26T15:31:29.567Z,62.3
2022-09-26T15:32:45.796Z,62.6
2022-09-26T15:34:02.046Z,61.9
2022-09-26T15:35:18.294Z,62
2022-09-26T15:36:33.539Z,62
2022-09-26T15:37:49.770Z,62.1
2022-09-26T15:39:06.010Z,62.6
2022-09-26T15:40:22.258Z,62.1
2022-09-26T15:41:38.494Z,62.3
2022-09-26T15:42:54.737Z,62
2022-09-26T15:45:27.211Z,62.1
2022-09-26T15:46:43.457Z,61.8
2022-09-26T15:47:59.696Z,60.8
2022-09-26T15:49:15.934Z,60.7
2022-09-26T15:50:32.179Z,60.5
2022-09-26T15:51:48.415Z,61
2022-09-26T15:53:03.669Z,60.9
2022-09-26T15:54:19.920Z,60.1
2022-09-26T15:55:36.153Z,60.1
2022-09-26T15:56:52.382Z,59.9
2022-09-26T15:58:08.627Z,59.6
2022-09-26T15:59:24.870Z,59.6
2022-09-26T16:00:41.113Z,58.9
2022-09-26T16:01:57.356Z,59.5
2022-09-26T16:03:13.597Z,59.3
2022-09-26T16:04:29.824Z,59.7
2022-09-26T16:05:46.073Z,59.6
2022-09-26T16:07:02.314Z,60.4
2022-09-26T16:08:18.561Z,60.4
2022-09-26T16:10:50.057Z,60.4
2022-09-26T16:12:06.281Z,60.8
2022-09-26T16:13:22.533Z,61.2
2022-09-26T16:14:38.763Z,61.5
2022-09-26T16:15:54.997Z,62
2022-09-26T16:17:11.254Z,62.3
2022-09-26T16:18:27.494Z,62.4
2022-09-26T16:19:43.734Z,62.5
2022-09-26T16:20:59.971Z,62.8
2022-09-26T16:22:16.197Z,63.1
2022-09-26T16:23:32.444Z,63.1
2022-09-26T16:24:48.683Z,63.7
2022-09-26T16:26:03.935Z,63.4
2022-09-26T16:27:20.179Z,63.9
2022-09-26T16:28:36.425Z,64.2
2022-09-26T16:29:52.653Z,64.3
2022-09-26T16:31:08.901Z,64.2
2022-09-26T16:32:25.137Z,64.5
2022-09-26T16:33:41.382Z,64.9
2022-09-26T16:34:57.612Z,65.1
2022-09-26T16:36:13.869Z,65.2
2022-09-26T16:37:30.108Z,65.2
2022-09-26T16:38:46.336Z,65.3
2022-09-26T16:40:02.589Z,65.6
2022-09-26T16:41:18.818Z,65.7
2022-09-26T16:42:34.074Z,65.8
2022-09-26T16:43:50.317Z,66.1
2022-09-26T16:45:06.558Z,66.2
2022-09-26T16:46:22.793Z,66.5
2022-09-26T16:47:39.038Z,66.8
2022-09-26T16:48:55.276Z,67
2022-09-26T16:50:11.521Z,67.3
2022-09-26T16:51:27.757Z,67.3
2022-09-26T16:52:43.990Z,67.7
2022-09-26T16:54:00.245Z,67.6
2022-09-26T16:55:16.471Z,68.1
2022-09-26T16:56:32.715Z,68
2022-09-26T16:57:48.961Z,68.2
2022-09-26T16:59:05.188Z,68.1
2022-09-26T17:00:20.462Z,68.5
2022-09-26T17:01:36.684Z,68.3
2022-09-26T17:02:52.922Z,68.7
2022-09-26T17:04:09.176Z,68.7
2022-09-26T17:05:25.407Z,69
2022-09-26T17:06:41.657Z,69.2
2022-09-26T17:07:57.893Z,69.5
2022-09-26T17:09:14.141Z,69.8
2022-09-26T17:10:30.368Z,70.1
2022-09-26T17:11:46.620Z,70.5
2022-09-26T17:13:02.842Z,70.8
2022-09-26T17:14:19.094Z,70.9
2022-09-26T17:15:35.338Z,71.1
2022-09-26T17:16:50.581Z,71.5
2022-09-26T17:18:06.829Z,71.6
2022-09-26T17:19:23.065Z,72
2022-09-26T17:20:38.334Z,72.1
2022-09-26T17:21:54.575Z,72.3
2022-09-26T17:23:10.808Z,72.7
2022-09-26T17:24:27.054Z,72.7
2022-09-26T17:25:43.291Z,73
2022-09-26T17:26:59.531Z,73.3
2022-09-26T17:28:15.766Z,73.3
2022-09-26T17:29:31.998Z,73.6
2022-09-26T17:30:48.257Z,73.7
2022-09-26T17:32:04.491Z,73.9
2022-09-26T17:33:20.728Z,74
2022-09-26T17:34:37.018Z,74
2022-09-26T17:35:53.307Z,74.1
2022-09-26T17:37:09.618Z,74.5
2022-09-26T17:38:24.922Z,74.5
2022-09-26T17:39:41.221Z,74.5
2022-09-26T17:40:57.501Z,74.6
2022-09-26T17:42:13.804Z,74.6
2022-09-26T17:43:30.094Z,74.8
2022-09-26T17:44:46.391Z,75.1
2022-09-26T17:46:02.678Z,75.2
2022-09-26T17:47:18.976Z,75.3
2022-09-26T17:48:35.280Z,75.5
2022-09-26T17:49:51.561Z,75.7
2022-09-26T17:51:07.847Z,75.8
2022-09-26T17:52:24.154Z,76.1
2022-09-26T17:53:40.437Z,76
2022-09-26T17:54:55.760Z,76.3